Time;durP1;ratioP1;P1;durP2;ratioP2;P2;SDS_P1;SDS_P2;PMS_P1;PMS_P2;Temp;Humidity;BMP_temperature;BMP_pressure;BME280_temperature;BME280_humidity;BME280_pressure;Samples;Min_cycle;Max_cycle;Signal;HPM_P1;HPM_P2
2023/12/22 00:02:20;;;;;;;8.00;1.30;;;8.40;33.00;;;;;;5028949;28;20548;-66
2023/12/22 00:04:48;;;;;;;7.50;1.10;;;8.40;33.10;;;;;;5024619;28;20511;-65
2023/12/22 00:07:15;;;;;;;7.10;1.70;;;8.40;34.10;;;;;;5027006;28;20983;-65
2023/12/22 00:09:42;;;;;;;4.37;1.30;;;8.40;33.50;;;;;;5026229;28;20490;-65
2023/12/22 00:12:09;;;;;;;5.97;1.10;;;8.40;33.70;;;;;;5024854;28;20518;-65
2023/12/22 00:14:37;;;;;;;3.50;0.80;;;8.40;33.90;;;;;;5027792;28;20478;-66
2023/12/22 00:17:04;;;;;;;5.77;0.70;;;8.40;32.10;;;;;;5029572;28;20895;-65
2023/12/22 00:19:31;;;;;;;4.50;0.80;;;8.30;30.10;;;;;;5027810;28;21093;-65
2023/12/22 00:21:59;;;;;;;3.60;0.50;;;8.10;29.20;;;;;;5026111;28;20506;-65
2023/12/22 00:24:25;;;;;;;4.07;0.70;;;8.00;30.50;;;;;;5028761;28;20463;-66
2023/12/22 00:26:52;;;;;;;4.33;0.70;;;7.90;30.10;;;;;;5025845;28;21005;-65
2023/12/22 00:29:19;;;;;;;3.63;0.70;;;7.80;30.50;;;;;;5025087;28;20479;-66
2023/12/22 00:31:46;;;;;;;4.70;1.87;;;7.70;30.80;;;;;;5028167;28;20481;-65
2023/12/22 00:34:12;;;;;;;3.20;0.60;;;7.60;31.30;;;;;;5029220;28;20451;-65
2023/12/22 00:36:39;;;;;;;3.13;0.57;;;7.50;31.40;;;;;;5027610;28;20503;-66
2023/12/22 00:39:07;;;;;;;3.60;0.70;;;7.50;31.80;;;;;;5031627;28;20486;-66
2023/12/22 00:41:34;;;;;;;5.90;0.70;;;7.40;32.30;;;;;;5026074;28;20471;-66
2023/12/22 00:44:00;;;;;;;3.20;0.60;;;7.30;32.50;;;;;;5027887;28;20941;-66
2023/12/22 00:46:27;;;;;;;3.50;0.43;;;7.30;32.80;;;;;;5030852;28;20485;-66
2023/12/22 00:48:54;;;;;;;3.00;0.60;;;7.30;33.00;;;;;;5024592;28;20486;-65
2023/12/22 00:51:20;;;;;;;5.10;0.60;;;7.20;32.90;;;;;;5015332;28;20481;-65
2023/12/22 00:53:47;;;;;;;3.10;0.57;;;7.20;33.00;;;;;;5018801;28;20466;-66
2023/12/22 00:56:15;;;;;;;3.30;0.70;;;7.20;33.00;;;;;;5028348;28;20463;-65
2023/12/22 00:58:42;;;;;;;3.00;0.40;;;7.20;33.20;;;;;;5028263;28;20841;-66
2023/12/22 01:01:09;;;;;;;3.47;0.40;;;7.20;33.10;;;;;;5022884;28;20476;-66
2023/12/22 01:03:35;;;;;;;2.77;0.40;;;7.20;33.10;;;;;;5027396;28;20466;-65
2023/12/22 01:06:02;;;;;;;3.30;0.40;;;7.20;33.20;;;;;;5028003;28;20471;-65
2023/12/22 01:08:29;;;;;;;2.80;0.50;;;7.20;33.00;;;;;;5025905;28;20470;-65
2023/12/22 01:10:56;;;;;;;4.50;0.83;;;7.20;33.00;;;;;;5026727;28;20474;-65
2023/12/22 01:13:24;;;;;;;4.30;0.60;;;7.30;32.90;;;;;;5041828;22;21017;-68
2023/12/22 01:15:51;;;;;;;4.00;0.60;;;7.30;33.00;;;;;;5046863;28;20462;-68
2023/12/22 01:18:17;;;;;;;5.50;1.10;;;7.30;33.10;;;;;;5048152;28;21239;-70
2023/12/22 01:20:44;;;;;;;9.47;1.27;;;7.30;33.20;;;;;;5044617;28;20490;-70
2023/12/22 01:23:11;;;;;;;7.23;1.03;;;7.40;33.00;;;;;;5044490;28;20473;-72
2023/12/22 01:25:37;;;;;;;5.13;1.27;;;7.50;32.90;;;;;;5041874;28;20477;-71
2023/12/22 01:28:04;;;;;;;4.97;1.10;;;7.50;32.40;;;;;;5046725;28;20465;-71
2023/12/22 01:30:32;;;;;;;5.67;2.00;;;7.50;32.10;;;;;;5046607;28;20784;-71
2023/12/22 01:32:59;;;;;;;5.10;1.60;;;7.60;32.00;;;;;;5044300;28;20461;-71
2023/12/22 01:35:26;;;;;;;5.63;0.97;;;7.60;32.00;;;;;;5046452;28;20481;-71
2023/12/22 01:37:53;;;;;;;4.37;1.10;;;7.60;31.80;;;;;;5046672;28;20837;-72
2023/12/22 01:40:19;;;;;;;4.83;1.00;;;7.60;31.40;;;;;;5046128;28;20481;-72
2023/12/22 01:42:47;;;;;;;4.03;0.97;;;7.60;31.60;;;;;;5042574;28;20481;-71
2023/12/22 01:45:14;;;;;;;6.27;1.30;;;7.70;31.50;;;;;;5040690;28;21275;-72
2023/12/22 01:47:43;;;;;;;7.40;1.30;;;7.70;31.50;;;;;;5047071;28;20488;-71
2023/12/22 01:50:11;;;;;;;4.47;1.00;;;7.70;31.20;;;;;;5045315;28;20489;-71
2023/12/22 01:52:38;;;;;;;3.50;0.90;;;7.70;31.20;;;;;;5047348;28;20481;-71
2023/12/22 01:55:06;;;;;;;7.60;1.27;;;7.60;31.30;;;;;;5047694;28;20458;-72
2023/12/22 01:57:35;;;;;;;8.47;1.17;;;7.60;31.20;;;;;;5045672;28;20469;-71
2023/12/22 02:00:03;;;;;;;5.90;1.27;;;7.60;30.90;;;;;;5039337;28;20572;-72
2023/12/22 02:02:30;;;;;;;5.37;1.67;;;7.60;30.70;;;;;;5046270;28;21074;-71
2023/12/22 02:04:59;;;;;;;6.23;1.07;;;7.60;29.90;;;;;;5047097;28;20462;-71
2023/12/22 02:07:27;;;;;;;4.27;1.40;;;7.60;29.80;;;;;;5047152;28;20489;-72
2023/12/22 02:09:54;;;;;;;5.50;1.27;;;7.60;29.40;;;;;;5043488;28;20493;-70
2023/12/22 02:12:21;;;;;;;3.90;1.20;;;7.60;28.70;;;;;;5045857;28;20458;-71
2023/12/22 02:14:47;;;;;;;5.13;1.23;;;7.60;28.60;;;;;;5047523;28;20466;-72
2023/12/22 02:17:22;;;;;;;5.30;1.40;;;7.70;28.10;;;;;;5047074;28;20458;-71
2023/12/22 02:19:49;;;;;;;6.27;1.10;;;7.70;27.70;;;;;;5047238;28;20524;-72
2023/12/22 02:22:17;;;;;;;6.23;1.33;;;7.70;27.50;;;;;;5046728;28;20450;-72
2023/12/22 02:24:45;;;;;;;3.40;0.90;;;7.70;27.80;;;;;;5047352;28;20470;-72
2023/12/22 02:27:23;;;;;;;3.60;0.70;;;7.70;27.50;;;;;;5046872;28;20500;-72
2023/12/22 02:29:55;;;;;;;4.10;0.70;;;7.70;27.50;;;;;;5044546;28;20871;-70
2023/12/22 02:32:28;;;;;;;3.93;0.67;;;7.70;27.00;;;;;;5044422;28;20466;-70
2023/12/22 02:34:57;;;;;;;4.07;0.67;;;7.70;27.00;;;;;;5043600;28;21276;-72
2023/12/22 02:37:25;;;;;;;3.30;0.70;;;7.70;26.90;;;;;;5047306;28;20469;-71
2023/12/22 02:39:54;;;;;;;3.20;0.50;;;7.60;26.70;;;;;;5045308;28;20490;-72
2023/12/22 02:42:24;;;;;;;3.20;0.63;;;7.60;25.90;;;;;;5046283;28;20505;-71
2023/12/22 02:44:52;;;;;;;3.13;0.40;;;7.60;25.90;;;;;;5045149;28;20518;-71
2023/12/22 02:47:18;;;;;;;6.67;0.60;;;7.60;25.30;;;;;;5047028;28;20482;-71
2023/12/22 02:49:45;;;;;;;4.23;0.47;;;7.50;24.80;;;;;;5045311;28;20486;-71
2023/12/22 02:52:12;;;;;;;3.20;0.40;;;7.50;24.60;;;;;;5044694;28;20458;-71
2023/12/22 02:54:39;;;;;;;6.53;0.60;;;7.50;24.00;;;;;;5046291;28;20457;-71
2023/12/22 02:57:08;;;;;;;3.10;0.57;;;7.40;23.80;;;;;;5043378;28;20523;-71
2023/12/22 02:59:34;;;;;;;3.10;0.40;;;7.40;24.30;;;;;;5047060;28;20485;-71
2023/12/22 03:02:01;;;;;;;3.30;0.80;;;7.40;24.40;;;;;;5044136;28;21100;-71
2023/12/22 03:04:28;;;;;;;3.17;0.80;;;7.40;23.10;;;;;;5043759;28;20462;-71
2023/12/22 03:06:54;;;;;;;3.30;0.60;;;7.30;24.00;;;;;;5046392;28;20473;-70
2023/12/22 03:09:21;;;;;;;6.70;0.73;;;7.30;23.40;;;;;;5044977;28;20485;-70
2023/12/22 03:11:48;;;;;;;4.00;0.80;;;7.30;23.20;;;;;;5042680;28;20572;-70
2023/12/22 03:14:16;;;;;;;3.37;0.83;;;7.20;23.40;;;;;;5044420;28;20461;-71
2023/12/22 03:16:43;;;;;;;3.00;0.70;;;7.20;22.40;;;;;;5046069;28;20470;-71
2023/12/22 03:19:09;;;;;;;4.93;0.90;;;7.20;22.50;;;;;;5046461;28;20900;-71
2023/12/22 03:21:36;;;;;;;4.53;0.80;;;7.20;22.90;;;;;;5046926;28;20458;-70
2023/12/22 03:24:03;;;;;;;4.47;1.20;;;7.10;22.60;;;;;;5044794;28;20506;-70
2023/12/22 03:26:30;;;;;;;4.90;0.87;;;7.10;22.60;;;;;;5046943;28;20450;-70
2023/12/22 03:28:56;;;;;;;4.23;1.00;;;7.10;23.10;;;;;;5045847;28;20969;-70
2023/12/22 03:31:24;;;;;;;4.83;1.00;;;7.10;23.20;;;;;;5040634;28;20466;-70
2023/12/22 03:33:51;;;;;;;5.40;1.00;;;7.10;23.50;;;;;;5044287;28;20464;-70
2023/12/22 03:36:18;;;;;;;6.90;1.10;;;7.10;23.30;;;;;;5045509;28;20937;-71
2023/12/22 03:38:44;;;;;;;5.40;1.10;;;7.20;23.20;;;;;;5043090;28;20484;-71
2023/12/22 03:41:11;;;;;;;3.63;0.97;;;7.20;23.10;;;;;;5048603;28;20466;-71
2023/12/22 03:43:38;;;;;;;7.77;1.00;;;7.20;23.20;;;;;;5043190;28;20845;-70
2023/12/22 03:46:04;;;;;;;9.13;1.20;;;7.20;22.80;;;;;;5048000;28;20470;-70
2023/12/22 03:48:32;;;;;;;4.70;1.20;;;7.30;22.50;;;;;;5049671;28;20488;-71
2023/12/22 03:50:59;;;;;;;6.27;1.20;;;7.30;23.00;;;;;;5046379;28;20458;-71
2023/12/22 03:53:26;;;;;;;3.13;0.60;;;7.30;23.10;;;;;;5053470;28;20456;-71
2023/12/22 03:55:53;;;;;;;4.30;1.00;;;7.40;22.60;;;;;;5042931;28;20696;-71
2023/12/22 03:58:19;;;;;;;5.00;1.33;;;7.30;22.70;;;;;;5048987;28;20465;-71
2023/12/22 04:00:46;;;;;;;7.55;1.17;;;7.40;22.50;;;;;;5045665;28;20448;-71
2023/12/22 04:03:13;;;;;;;6.77;1.13;;;7.40;22.10;;;;;;5046089;28;20241;-71
2023/12/22 04:05:41;;;;;;;4.10;0.90;;;7.40;21.80;;;;;;5048983;28;20532;-71
2023/12/22 04:08:08;;;;;;;4.83;0.73;;;7.40;21.40;;;;;;5047822;28;20489;-71
2023/12/22 04:10:35;;;;;;;4.90;0.90;;;7.40;21.70;;;;;;5048760;28;20486;-71
2023/12/22 04:13:02;;;;;;;4.07;0.60;;;7.50;21.30;;;;;;5049443;28;20907;-71
2023/12/22 04:15:29;;;;;;;9.37;1.30;;;7.50;21.20;;;;;;5047749;28;20565;-72
2023/12/22 04:17:55;;;;;;;3.47;0.80;;;7.50;21.20;;;;;;5048135;28;20965;-71
2023/12/22 04:20:22;;;;;;;3.67;0.90;;;7.50;21.00;;;;;;5048858;28;20501;-71
2023/12/22 04:22:50;;;;;;;5.67;1.30;;;7.50;20.80;;;;;;5044528;28;20496;-71
2023/12/22 04:25:17;;;;;;;3.50;0.70;;;7.50;20.70;;;;;;5047168;28;20458;-71
2023/12/22 04:27:44;;;;;;;3.53;0.73;;;7.50;20.70;;;;;;5048707;28;20485;-71
2023/12/22 04:30:12;;;;;;;4.77;0.80;;;7.50;20.50;;;;;;5046840;28;20482;-71
2023/12/22 04:32:38;;;;;;;4.97;0.90;;;7.50;20.00;;;;;;5048685;28;20825;-71
2023/12/22 04:35:06;;;;;;;3.87;0.97;;;7.60;19.80;;;;;;5045347;28;20470;-71
2023/12/22 04:37:32;;;;;;;3.87;0.90;;;7.60;19.90;;;;;;5048084;28;20462;-71
2023/12/22 04:40:01;;;;;;;4.30;0.70;;;7.60;19.90;;;;;;5047373;28;20486;-71
2023/12/22 04:42:28;;;;;;;4.80;1.00;;;7.60;19.80;;;;;;5048191;28;20821;-71
2023/12/22 04:44:55;;;;;;;6.17;1.97;;;7.60;20.80;;;;;;5046657;28;20497;-71
2023/12/22 04:47:21;;;;;;;3.77;0.80;;;7.60;21.30;;;;;;5045780;28;20479;-71
2023/12/22 04:49:48;;;;;;;3.60;0.83;;;7.60;22.40;;;;;;5048100;28;20488;-71
2023/12/22 04:52:15;;;;;;;6.10;1.20;;;7.60;22.70;;;;;;5047507;28;20458;-71
2023/12/22 04:54:42;;;;;;;3.83;0.90;;;7.60;22.60;;;;;;5043961;28;20505;-71
2023/12/22 04:57:10;;;;;;;5.00;1.10;;;7.60;23.10;;;;;;5048810;28;20477;-71
2023/12/22 04:59:36;;;;;;;3.50;1.13;;;7.50;23.40;;;;;;5048182;28;20478;-71
2023/12/22 05:02:03;;;;;;;5.60;1.53;;;7.50;22.90;;;;;;5046876;28;20489;-70
2023/12/22 05:04:30;;;;;;;5.83;1.23;;;7.50;23.80;;;;;;5048492;28;21017;-71
2023/12/22 05:06:56;;;;;;;6.07;1.17;;;7.50;23.50;;;;;;5051301;28;20470;-71
2023/12/22 05:09:24;;;;;;;8.83;1.30;;;7.50;24.00;;;;;;5045481;28;20845;-71
2023/12/22 05:11:51;;;;;;;7.07;1.23;;;7.50;24.30;;;;;;5047252;28;20211;-71
2023/12/22 05:14:19;;;;;;;5.50;1.40;;;7.50;24.20;;;;;;5047996;28;20806;-71
2023/12/22 05:16:46;;;;;;;7.37;1.13;;;7.50;24.70;;;;;;5046629;28;20462;-71
2023/12/22 05:19:12;;;;;;;5.00;1.20;;;7.40;24.40;;;;;;5050640;28;21108;-71
2023/12/22 05:21:39;;;;;;;8.03;1.00;;;7.40;24.20;;;;;;5047385;28;20480;-71
2023/12/22 05:24:06;;;;;;;5.10;0.87;;;7.40;24.00;;;;;;5044561;28;21020;-71
2023/12/22 05:26:33;;;;;;;4.63;1.10;;;7.40;24.20;;;;;;5047277;28;20485;-71
2023/12/22 05:29:00;;;;;;;7.83;1.00;;;7.40;24.30;;;;;;5042710;28;20487;-70
2023/12/22 05:31:28;;;;;;;6.33;0.90;;;7.40;24.40;;;;;;5047449;28;20466;-70
2023/12/22 05:33:55;;;;;;;4.67;1.17;;;7.40;24.20;;;;;;5044126;28;20555;-71
2023/12/22 05:36:22;;;;;;;8.30;1.07;;;7.40;24.30;;;;;;5044420;28;20466;-71
2023/12/22 05:38:48;;;;;;;4.90;1.20;;;7.40;24.10;;;;;;5046076;28;20489;-71
2023/12/22 05:41:15;;;;;;;4.43;0.80;;;7.40;24.30;;;;;;5047780;28;20458;-71
2023/12/22 05:43:42;;;;;;;4.93;1.20;;;7.40;24.10;;;;;;5044657;28;20517;-71
2023/12/22 05:46:10;;;;;;;4.77;0.97;;;7.40;24.20;;;;;;5042211;28;20567;-70
2023/12/22 05:48:38;;;;;;;5.80;1.70;;;7.40;24.20;;;;;;5045971;28;20505;-70
2023/12/22 05:51:07;;;;;;;5.00;1.00;;;7.40;23.80;;;;;;5046139;28;20469;-70
2023/12/22 05:53:34;;;;;;;5.33;0.80;;;7.40;23.80;;;;;;5046356;28;21005;-71
2023/12/22 05:56:00;;;;;;;6.40;0.90;;;7.40;23.90;;;;;;5043371;28;20954;-71
2023/12/22 05:58:27;;;;;;;5.40;0.90;;;7.40;24.10;;;;;;5046558;28;20459;-71
2023/12/22 06:00:54;;;;;;;3.10;0.50;;;7.30;24.30;;;;;;5042208;28;20474;-71
2023/12/22 06:03:20;;;;;;;4.07;1.00;;;7.30;24.30;;;;;;5045213;28;20807;-72
2023/12/22 06:05:48;;;;;;;3.37;1.17;;;7.30;23.90;;;;;;5046930;28;20462;-71
2023/12/22 06:08:15;;;;;;;3.57;0.80;;;7.40;23.90;;;;;;5045994;28;20493;-71
2023/12/22 06:10:42;;;;;;;5.00;1.33;;;7.30;23.30;;;;;;5046038;28;20531;-71
2023/12/22 06:13:09;;;;;;;4.93;1.30;;;7.30;23.50;;;;;;5046864;28;20454;-71
2023/12/22 06:15:35;;;;;;;6.00;1.40;;;7.30;23.50;;;;;;5045221;28;20472;-71
2023/12/22 06:18:02;;;;;;;6.90;1.47;;;7.30;23.40;;;;;;5046683;28;20450;-71
2023/12/22 06:20:29;;;;;;;5.87;1.77;;;7.30;23.00;;;;;;5046472;28;20489;-71
2023/12/22 06:22:57;;;;;;;6.20;1.60;;;7.30;23.10;;;;;;5047079;28;20827;-71
2023/12/22 06:25:24;;;;;;;6.20;1.67;;;7.40;24.00;;;;;;5046289;28;20462;-71
2023/12/22 06:27:50;;;;;;;6.83;1.60;;;7.30;24.90;;;;;;5046789;28;20481;-70
2023/12/22 06:30:17;;;;;;;12.57;1.87;;;7.30;26.00;;;;;;5045681;28;20485;-70
2023/12/22 06:32:44;;;;;;;6.73;2.20;;;7.30;26.90;;;;;;5044137;28;20461;-72
2023/12/22 06:35:11;;;;;;;13.83;1.93;;;7.30;27.80;;;;;;5045362;28;20458;-71
2023/12/22 06:37:38;;;;;;;6.97;1.73;;;7.20;27.50;;;;;;5045786;28;20498;-70
2023/12/22 06:40:07;;;;;;;10.27;2.20;;;7.20;27.60;;;;;;5046049;28;20487;-70
2023/12/22 06:42:34;;;;;;;6.83;1.53;;;7.20;27.70;;;;;;5045888;28;20454;-70
2023/12/22 06:45:01;;;;;;;6.70;1.37;;;7.20;27.20;;;;;;5045089;28;20462;-71
2023/12/22 06:47:28;;;;;;;7.97;1.50;;;7.20;27.00;;;;;;5044190;28;20458;-71
2023/12/22 06:49:54;;;;;;;6.10;1.53;;;7.20;27.00;;;;;;5044807;28;20481;-71
2023/12/22 06:52:21;;;;;;;3.83;1.00;;;7.10;27.30;;;;;;5047974;28;20458;-71
2023/12/22 06:54:48;;;;;;;11.23;1.63;;;7.10;27.50;;;;;;5044255;28;21099;-71
2023/12/22 06:57:16;;;;;;;6.50;2.00;;;7.10;27.70;;;;;;5044972;28;20528;-70
2023/12/22 06:59:43;;;;;;;5.00;1.10;;;7.10;27.70;;;;;;5046401;28;20573;-70
2023/12/22 07:02:09;;;;;;;7.17;1.40;;;7.10;28.20;;;;;;5043077;28;20868;-71
2023/12/22 07:05:06;;;;;;;6.30;1.10;;;7.00;28.30;;;;;;5044444;28;20466;-71
2023/12/22 07:07:32;;;;;;;5.57;1.30;;;7.10;28.40;;;;;;5043503;28;20464;-71
2023/12/22 07:09:59;;;;;;;7.00;1.10;;;7.10;28.30;;;;;;5042124;28;20485;-71
2023/12/22 07:12:27;;;;;;;8.00;1.43;;;7.10;28.00;;;;;;5043901;28;20958;-71
2023/12/22 07:14:54;;;;;;;7.77;1.27;;;7.00;27.90;;;;;;5044136;28;20905;-71
2023/12/22 07:17:21;;;;;;;7.17;1.40;;;7.00;27.90;;;;;;5044700;28;20462;-71
2023/12/22 07:19:47;;;;;;;8.90;2.07;;;7.00;27.80;;;;;;5050273;28;20481;-71
2023/12/22 07:22:15;;;;;;;5.60;1.40;;;7.00;27.80;;;;;;5049322;28;20494;-71
2023/12/22 07:24:41;;;;;;;6.00;1.40;;;7.00;27.90;;;;;;5047829;28;20466;-70
2023/12/22 07:27:08;;;;;;;7.20;1.40;;;7.00;28.00;;;;;;5047947;28;20462;-71
2023/12/22 07:29:36;;;;;;;8.23;1.10;;;7.00;28.20;;;;;;5045489;28;20528;-71
2023/12/22 07:32:03;;;;;;;13.23;2.73;;;7.00;28.50;;;;;;5048781;28;20500;-71
2023/12/22 07:34:30;;;;;;;4.33;1.00;;;7.00;28.60;;;;;;5048410;28;20476;-70
2023/12/22 07:36:57;;;;;;;5.37;1.10;;;7.00;28.60;;;;;;5049032;23;20505;-67
2023/12/22 07:39:24;;;;;;;4.30;0.90;;;7.10;28.50;;;;;;5045475;28;21019;-67
2023/12/22 07:41:52;;;;;;;4.73;1.20;;;7.10;28.10;;;;;;5049153;28;20477;-66
2023/12/22 07:44:18;;;;;;;5.60;0.90;;;7.10;28.00;;;;;;5049892;28;20457;-67
2023/12/22 07:46:56;;;;;;;4.77;0.90;;;7.10;28.20;;;;;;5048707;28;20469;-67
2023/12/22 07:49:23;;;;;;;4.23;0.90;;;7.10;28.20;;;;;;5047868;28;20478;-66
2023/12/22 07:51:51;;;;;;;3.47;0.80;;;7.10;28.00;;;;;;5050655;28;20450;-68
2023/12/22 07:54:18;;;;;;;6.37;1.43;;;7.10;28.00;;;;;;5047871;28;20516;-67
2023/12/22 07:56:45;;;;;;;8.60;2.07;;;7.10;27.40;;;;;;5045744;28;21205;-67
2023/12/22 07:59:11;;;;;;;5.80;1.30;;;7.10;27.50;;;;;;5044517;28;20480;-67
2023/12/22 08:01:38;;;;;;;7.20;1.63;;;7.10;27.40;;;;;;5048473;28;20501;-67
2023/12/22 08:04:06;;;;;;;4.47;1.20;;;7.10;27.40;;;;;;5048377;28;20465;-67
2023/12/22 08:06:33;;;;;;;6.47;1.60;;;7.10;27.20;;;;;;5047868;28;20454;-67
2023/12/22 08:09:00;;;;;;;4.40;1.50;;;7.10;26.90;;;;;;5047611;28;21363;-67
2023/12/22 08:11:26;;;;;;;7.00;2.03;;;7.20;26.40;;;;;;5047292;28;20465;-67
2023/12/22 08:13:53;;;;;;;7.73;2.10;;;7.20;25.80;;;;;;5047540;28;20462;-67
2023/12/22 08:16:20;;;;;;;7.47;1.93;;;7.20;25.70;;;;;;5047261;28;20541;-67
2023/12/22 08:18:46;;;;;;;5.87;1.27;;;7.30;25.30;;;;;;5045697;28;21269;-68
2023/12/22 08:21:16;;;;;;;9.47;1.90;;;7.30;25.20;;;;;;5044756;28;20512;-67
2023/12/22 08:23:43;;;;;;;11.43;2.30;;;7.30;25.20;;;;;;5049391;28;21028;-67
2023/12/22 08:26:10;;;;;;;8.70;1.87;;;7.40;25.40;;;;;;5045448;28;20461;-68
2023/12/22 08:28:36;;;;;;;6.33;2.10;;;7.40;25.30;;;;;;5048766;28;20482;-68
2023/12/22 08:31:03;;;;;;;9.40;1.90;;;7.40;25.40;;;;;;5045299;28;20474;-67
2023/12/22 08:33:31;;;;;;;12.20;1.93;;;7.50;25.70;;;;;;5044992;28;20822;-68
2023/12/22 08:35:58;;;;;;;12.17;2.00;;;7.50;25.50;;;;;;5048346;28;20468;-67
2023/12/22 08:38:26;;;;;;;6.40;1.80;;;7.50;25.90;;;;;;5046871;28;20454;-67
2023/12/22 08:40:55;;;;;;;6.47;2.00;;;7.50;26.20;;;;;;5048104;28;20563;-67
2023/12/22 08:43:22;;;;;;;16.33;4.40;;;7.50;26.20;;;;;;5049000;28;20477;-68
2023/12/22 08:45:49;;;;;;;9.07;2.20;;;7.50;26.60;;;;;;5048420;28;20474;-67
2023/12/22 08:48:15;;;;;;;10.90;2.13;;;7.50;26.80;;;;;;5045157;28;20466;-68
2023/12/22 08:50:42;;;;;;;8.40;1.97;;;7.60;27.10;;;;;;5044313;28;20822;-67
2023/12/22 08:53:09;;;;;;;6.83;2.27;;;7.50;27.20;;;;;;5047565;28;21305;-68
2023/12/22 08:55:37;;;;;;;8.43;1.80;;;7.50;27.50;;;;;;5048015;28;20528;-68
2023/12/22 08:58:04;;;;;;;6.17;1.60;;;7.50;27.50;;;;;;5048849;28;20461;-68
2023/12/22 09:00:31;;;;;;;9.20;2.10;;;7.50;27.60;;;;;;5051963;28;20492;-67
2023/12/22 09:02:58;;;;;;;6.10;2.40;;;7.60;27.70;;;;;;5050694;28;20495;-68
2023/12/22 09:05:25;;;;;;;6.83;1.70;;;7.60;27.70;;;;;;5049203;28;20462;-68
2023/12/22 09:07:52;;;;;;;7.60;1.43;;;7.60;27.70;;;;;;5042572;28;20474;-68
2023/12/22 09:10:18;;;;;;;11.80;1.77;;;7.60;27.70;;;;;;5047057;28;20513;-68
2023/12/22 09:12:47;;;;;;;13.10;1.53;;;7.60;27.60;;;;;;5051842;28;20496;-68
2023/12/22 09:15:13;;;;;;;8.07;2.13;;;7.60;27.70;;;;;;5047900;28;20941;-68
2023/12/22 09:17:41;;;;;;;5.67;1.57;;;7.70;27.70;;;;;;5045979;28;20958;-67
2023/12/22 09:20:09;;;;;;;7.10;2.07;;;7.70;27.50;;;;;;5044805;28;20477;-68
2023/12/22 09:22:35;;;;;;;8.97;1.70;;;7.70;27.40;;;;;;5045756;28;20460;-69
2023/12/22 09:25:02;;;;;;;8.47;1.83;;;7.70;27.50;;;;;;5047397;28;20462;-68
2023/12/22 09:27:30;;;;;;;6.60;2.07;;;7.70;27.50;;;;;;5047507;28;20473;-68
2023/12/22 09:29:59;;;;;;;6.00;1.33;;;7.70;27.30;;;;;;5047013;28;20481;-68
2023/12/22 09:32:26;;;;;;;8.83;2.00;;;7.80;27.40;;;;;;5045464;28;20473;-68
2023/12/22 09:34:54;;;;;;;8.60;2.03;;;7.80;27.20;;;;;;5047511;28;20549;-68
2023/12/22 09:37:21;;;;;;;8.13;1.50;;;7.90;27.20;;;;;;5044016;28;20589;-68
2023/12/22 09:39:48;;;;;;;6.03;1.57;;;7.90;27.20;;;;;;5048279;28;20486;-68
2023/12/22 09:42:16;;;;;;;5.30;1.50;;;7.90;27.00;;;;;;5044940;28;20485;-68
2023/12/22 09:44:43;;;;;;;4.33;1.07;;;8.00;26.50;;;;;;5047506;28;20454;-68
2023/12/22 09:47:13;;;;;;;5.00;1.10;;;8.00;26.00;;;;;;5046657;28;20466;-68
2023/12/22 09:49:41;;;;;;;4.37;1.00;;;8.00;25.90;;;;;;5046706;28;20572;-68
2023/12/22 09:52:09;;;;;;;8.17;1.23;;;8.00;25.70;;;;;;5045606;28;20469;-68
2023/12/22 09:54:37;;;;;;;5.30;1.70;;;8.00;25.90;;;;;;5047249;28;20549;-67
2023/12/22 09:57:06;;;;;;;7.37;1.30;;;8.00;25.80;;;;;;5045071;28;20470;-69
2023/12/22 09:59:34;;;;;;;6.00;0.97;;;8.10;25.80;;;;;;5047388;28;20477;-69
2023/12/22 10:02:03;;;;;;;3.60;1.00;;;8.10;25.50;;;;;;5045919;28;20488;-68
2023/12/22 10:04:31;;;;;;;7.40;1.20;;;8.10;25.30;;;;;;5044749;28;20458;-68
2023/12/22 10:07:00;;;;;;;5.73;1.20;;;8.10;25.20;;;;;;5047086;28;20998;-68
2023/12/22 10:09:27;;;;;;;5.37;1.10;;;8.10;25.20;;;;;;5045463;28;20478;-68
2023/12/22 10:11:55;;;;;;;5.90;1.60;;;8.10;25.30;;;;;;5043366;28;20464;-68
2023/12/22 10:14:23;;;;;;;6.10;2.00;;;8.10;25.40;;;;;;5043795;28;20462;-68
2023/12/22 10:16:50;;;;;;;7.00;1.93;;;8.10;25.50;;;;;;5046743;28;20466;-68
2023/12/22 10:19:17;;;;;;;6.87;1.70;;;8.10;25.50;;;;;;5044217;28;20503;-68
2023/12/22 10:22:04;;;;;;;4.30;1.10;;;8.10;25.30;;;;;;5045131;28;20782;-68
2023/12/22 10:24:42;;;;;;;7.43;1.97;;;8.10;25.20;;;;;;5040668;28;20473;-68
2023/12/22 10:27:12;;;;;;;4.90;1.10;;;8.10;25.40;;;;;;5043020;28;20524;-68
2023/12/22 10:29:39;;;;;;;6.00;1.60;;;8.10;25.40;;;;;;5043145;28;20564;-68
2023/12/22 10:32:07;;;;;;;5.50;2.17;;;8.10;25.40;;;;;;5041510;28;20470;-71
2023/12/22 10:34:34;;;;;;;6.40;2.07;;;8.10;25.60;;;;;;5044137;28;20494;-68
2023/12/22 10:37:01;;;;;;;8.77;3.10;;;8.10;25.60;;;;;;5044453;28;20473;-68
2023/12/22 10:39:30;;;;;;;13.60;7.83;;;8.10;25.70;;;;;;5041470;28;20493;-69
2023/12/22 10:41:57;;;;;;;11.70;7.00;;;8.20;25.10;;;;;;5041519;28;20461;-70
2023/12/22 10:44:25;;;;;;;8.93;3.30;;;8.10;25.10;;;;;;5043257;28;20512;-71
2023/12/22 10:46:52;;;;;;;5.40;1.60;;;8.20;25.10;;;;;;5044320;28;20465;-71
2023/12/22 10:49:19;;;;;;;9.90;4.30;;;8.20;24.80;;;;;;5042853;28;20567;-70
2023/12/22 10:51:46;;;;;;;7.80;4.23;;;8.20;25.00;;;;;;5044885;28;20468;-71
2023/12/22 10:54:12;;;;;;;12.50;6.13;;;8.20;25.10;;;;;;5045396;28;20461;-68
2023/12/22 10:56:41;;;;;;;6.37;3.30;;;8.20;25.00;;;;;;5049506;28;20462;-69
2023/12/22 10:59:09;;;;;;;9.10;4.93;;;8.20;24.60;;;;;;5049480;28;20484;-68
2023/12/22 11:01:38;;;;;;;10.40;2.97;;;8.20;24.20;;;;;;5046801;28;21031;-68
2023/12/22 11:04:13;;;;;;;7.37;3.20;;;8.30;24.30;;;;;;5043490;28;20493;-72
2023/12/22 11:06:43;;;;;;;7.30;2.17;;;8.30;24.70;;;;;;5050347;28;20962;-70
2023/12/22 11:09:11;;;;;;;6.97;3.13;;;8.30;24.20;;;;;;5045602;28;21166;-74
2023/12/22 11:11:39;;;;;;;6.87;2.17;;;8.30;23.90;;;;;;5046324;28;21000;-72
2023/12/22 11:14:09;;;;;;;7.57;2.20;;;8.30;24.40;;;;;;5051514;28;20461;-70
2023/12/22 11:16:37;;;;;;;9.00;3.63;;;8.30;24.30;;;;;;5046890;28;20529;-71
2023/12/22 11:19:05;;;;;;;8.90;2.40;;;8.30;24.30;;;;;;5049966;28;20474;-71
2023/12/22 11:21:32;;;;;;;8.10;2.17;;;8.40;23.90;;;;;;5047101;28;20519;-69
2023/12/22 11:24:00;;;;;;;5.57;1.93;;;8.40;23.80;;;;;;5045162;28;20917;-70
2023/12/22 11:26:27;;;;;;;13.63;2.83;;;8.40;23.70;;;;;;5051473;28;21608;-71
2023/12/22 11:28:54;;;;;;;8.70;2.10;;;8.40;23.70;;;;;;5044555;28;20845;-71
2023/12/22 11:31:24;;;;;;;9.10;2.00;;;8.40;23.90;;;;;;5048429;28;21207;-71
2023/12/22 11:33:51;;;;;;;6.67;2.00;;;8.50;23.90;;;;;;5047431;28;20462;-73
2023/12/22 11:36:19;;;;;;;7.10;1.70;;;8.40;23.60;;;;;;5042882;28;20493;-70
2023/12/22 11:38:47;;;;;;;8.73;2.50;;;8.50;23.90;;;;;;5043508;28;20543;-69
2023/12/22 11:41:17;;;;;;;7.27;2.07;;;8.50;24.00;;;;;;5045054;28;20465;-69
2023/12/22 11:43:45;;;;;;;9.10;2.10;;;8.50;23.70;;;;;;5047950;28;20462;-69
2023/12/22 11:46:12;;;;;;;4.73;1.23;;;8.50;23.90;;;;;;5044536;28;20461;-69
2023/12/22 11:48:48;;;;;;;5.13;1.50;;;8.50;24.20;;;;;;5048743;28;20476;-69
2023/12/22 11:51:15;;;;;;;8.10;1.60;;;8.50;24.10;;;;;;5045182;28;20486;-69
2023/12/22 11:53:43;;;;;;;6.47;1.60;;;8.50;24.50;;;;;;5051358;28;20527;-70
2023/12/22 11:56:10;;;;;;;6.77;1.40;;;8.50;24.70;;;;;;5047649;28;20817;-71
2023/12/22 11:58:39;;;;;;;9.67;1.60;;;8.50;24.70;;;;;;5044601;28;20473;-71
2023/12/22 12:01:10;;;;;;;9.37;1.77;;;8.40;24.80;;;;;;5027086;28;20458;-69
2023/12/22 12:03:49;;;;;;;6.53;1.60;;;8.40;25.30;;;;;;5045996;28;20468;-69
2023/12/22 12:06:18;;;;;;;5.60;1.70;;;8.40;25.70;;;;;;5045507;28;20472;-67
2023/12/22 12:08:45;;;;;;;10.20;2.10;;;8.40;25.70;;;;;;5045003;28;21024;-68
2023/12/22 12:11:12;;;;;;;6.70;1.70;;;8.40;25.80;;;;;;5045150;28;20489;-68
2023/12/22 12:13:44;;;;;;;8.10;2.17;;;8.40;26.60;;;;;;5044392;28;20536;-69
2023/12/22 12:16:12;;;;;;;5.80;1.43;;;8.40;26.20;;;;;;5040928;28;20468;-68
2023/12/22 12:18:39;;;;;;;6.20;1.90;;;8.40;26.50;;;;;;5046477;28;20450;-72
2023/12/22 12:21:08;;;;;;;9.57;1.90;;;8.40;26.70;;;;;;5044923;28;20462;-69
2023/12/22 12:23:35;;;;;;;6.73;2.20;;;8.40;26.80;;;;;;5043241;28;20779;-69
2023/12/22 12:26:04;;;;;;;6.33;2.10;;;8.40;26.90;;;;;;5040744;28;20956;-69
2023/12/22 12:28:33;;;;;;;7.70;1.60;;;8.40;27.00;;;;;;5050645;28;20470;-69
2023/12/22 12:31:01;;;;;;;6.20;1.33;;;8.40;27.10;;;;;;5042743;28;20474;-69
2023/12/22 12:33:28;;;;;;;12.27;6.03;;;8.40;27.70;;;;;;5041915;28;20566;-69
2023/12/22 12:35:57;;;;;;;4.43;1.50;;;8.40;27.00;;;;;;5036200;28;20472;-69
2023/12/22 12:38:37;;;;;;;4.43;1.37;;;8.40;26.90;;;;;;5048224;28;20473;-69
2023/12/22 12:41:05;;;;;;;4.83;1.20;;;8.40;27.20;;;;;;5045808;28;20469;-69
2023/12/22 12:43:32;;;;;;;7.57;1.60;;;8.40;27.40;;;;;;5041490;28;20519;-69
2023/12/22 12:46:04;;;;;;;7.03;1.70;;;8.40;27.40;;;;;;5045003;28;20954;-69
2023/12/22 12:48:31;;;;;;;4.27;1.43;;;8.40;27.60;;;;;;5046011;28;20466;-68
2023/12/22 12:51:03;;;;;;;13.63;2.10;;;8.40;27.50;;;;;;5042246;28;20478;-69
2023/12/22 12:53:33;;;;;;;9.83;3.83;;;8.40;27.70;;;;;;5040435;28;20465;-69
2023/12/22 12:56:00;;;;;;;5.40;2.93;;;8.40;27.60;;;;;;5042086;28;20459;-70
2023/12/22 12:58:31;;;;;;;6.30;2.63;;;8.40;27.70;;;;;;5043015;28;20454;-69